createdAt,value
2022-08-30T00:00:05.036Z,81.07
2022-08-30T00:02:34.060Z,80.68
2022-08-30T00:05:02.454Z,82.06
2022-08-30T00:07:30.914Z,80.95
2022-08-30T00:09:58.461Z,82.17
2022-08-30T00:12:26.867Z,82.49
2022-08-30T00:14:54.455Z,81.74
2022-08-30T00:17:22.135Z,82.22
2022-08-30T00:19:49.684Z,80.37
2022-08-30T00:22:17.212Z,79.76
2022-08-30T00:24:46.952Z,80.29
2022-08-30T00:27:14.676Z,82.57
2022-08-30T00:29:42.646Z,80.87
2022-08-30T00:32:10.267Z,82.54
2022-08-30T00:34:37.786Z,83.22
2022-08-30T00:37:05.305Z,85.02
2022-08-30T00:39:32.775Z,83.86
2022-08-30T00:42:00.668Z,86.09
2022-08-30T00:44:28.185Z,85.51
2022-08-30T00:46:55.745Z,84.27
2022-08-30T00:49:23.817Z,86.26
2022-08-30T00:51:52.320Z,88.78
2022-08-30T00:54:20.211Z,90.61
2022-08-30T00:56:49.441Z,91.58
2022-08-30T00:59:17.734Z,90.77
2022-08-30T01:01:46.237Z,91.22
2022-08-30T01:04:15.269Z,90.96
2022-08-30T01:06:42.801Z,90.00
2022-08-30T01:09:10.350Z,90.33
2022-08-30T01:11:41.332Z,89.90
2022-08-30T01:14:11.709Z,89.52
2022-08-30T01:16:41.725Z,90.30
2022-08-30T01:19:34.699Z,88.17
2022-08-30T01:22:09.207Z,87.84
2022-08-30T01:24:37.402Z,88.25
2022-08-30T01:27:05.032Z,88.06
2022-08-30T01:29:32.776Z,88.96
2022-08-30T01:32:00.321Z,90.82
2022-08-30T01:34:27.758Z,92.66
2022-08-30T01:36:55.274Z,93.00
2022-08-30T01:39:23.064Z,92.60
2022-08-30T01:41:50.641Z,92.72
2022-08-30T01:44:18.206Z,92.91
2022-08-30T01:46:47.697Z,93.31
2022-08-30T01:49:17.506Z,94.17
2022-08-30T01:51:50.728Z,97.19
2022-08-30T01:54:28.512Z,96.00
2022-08-30T01:57:05.713Z,98.74
2022-08-30T01:59:33.353Z,98.12
2022-08-30T02:02:00.953Z,94.30
2022-08-30T02:04:28.460Z,93.34
2022-08-30T02:06:56.029Z,92.06
2022-08-30T02:09:23.952Z,88.64
2022-08-30T02:11:52.000Z,89.53
2022-08-30T02:14:21.188Z,88.44
2022-08-30T02:16:49.072Z,86.75
2022-08-30T02:19:18.079Z,83.60
2022-08-30T02:21:45.566Z,83.96
2022-08-30T02:24:13.098Z,85.03
2022-08-30T02:26:40.805Z,87.54
2022-08-30T02:29:08.954Z,85.54
2022-08-30T02:31:36.693Z,89.65
2022-08-30T02:34:07.195Z,88.97
2022-08-30T02:36:37.684Z,87.64
2022-08-30T02:39:05.437Z,87.81
2022-08-30T02:41:32.931Z,91.48
2022-08-30T02:44:00.689Z,93.28
2022-08-30T02:46:33.287Z,95.04
2022-08-30T02:49:13.073Z,96.79
2022-08-30T02:51:50.157Z,96.12
2022-08-30T02:54:20.122Z,97.54
2022-08-30T02:56:48.910Z,94.56
2022-08-30T02:59:18.866Z,93.39
2022-08-30T03:01:47.635Z,92.54
2022-08-30T03:04:16.293Z,91.96
2022-08-30T03:06:43.732Z,91.30
2022-08-30T03:09:11.211Z,88.76
2022-08-30T03:11:38.626Z,86.25
2022-08-30T03:14:06.172Z,84.18
2022-08-30T03:16:33.736Z,81.95
2022-08-30T03:19:01.117Z,80.48
2022-08-30T03:21:28.545Z,78.94
2022-08-30T03:23:56.028Z,78.71
2022-08-30T03:26:23.467Z,77.72
2022-08-30T03:28:50.876Z,78.26
2022-08-30T03:31:18.271Z,78.13
2022-08-30T03:33:45.915Z,78.87
2022-08-30T03:36:13.335Z,78.90
2022-08-30T03:38:40.737Z,78.63
2022-08-30T03:41:08.658Z,78.51
2022-08-30T03:43:36.653Z,78.06
2022-08-30T03:46:05.221Z,80.13
2022-08-30T03:48:32.732Z,80.70
2022-08-30T03:51:00.288Z,81.88
2022-08-30T03:53:27.756Z,82.04
2022-08-30T03:55:55.255Z,82.75
2022-08-30T03:58:25.212Z,83.65
2022-08-30T04:00:52.702Z,83.46
2022-08-30T04:03:25.842Z,84.19
2022-08-30T04:05:54.937Z,84.34
2022-08-30T04:08:22.994Z,87.49
2022-08-30T04:10:51.033Z,86.95
2022-08-30T04:13:18.472Z,89.61
2022-08-30T04:15:45.900Z,89.35
2022-08-30T04:18:13.369Z,88.27
2022-08-30T04:20:41.228Z,87.15
2022-08-30T04:23:08.868Z,87.03
2022-08-30T04:25:38.007Z,85.02
2022-08-30T04:28:06.362Z,83.81
2022-08-30T04:30:38.200Z,82.06
2022-08-30T04:33:05.799Z,83.21
2022-08-30T04:35:36.077Z,81.58
2022-08-30T04:38:03.891Z,82.43
2022-08-30T04:40:31.432Z,82.44
2022-08-30T04:42:59.450Z,81.86
2022-08-30T04:45:29.392Z,81.23
2022-08-30T04:47:57.297Z,82.09
2022-08-30T04:50:25.397Z,83.61
2022-08-30T04:52:52.848Z,82.38
2022-08-30T07:33:22.839Z,42.94
2022-08-30T07:39:26.180Z,38.03
2022-08-30T07:41:56.059Z,39.28
2022-08-30T07:44:36.815Z,38.25
2022-08-30T07:48:03.676Z,38.86
2022-08-30T07:55:51.046Z,42.24
2022-08-30T07:58:31.440Z,41.57
2022-08-30T08:01:48.970Z,40.87
2022-08-30T08:04:56.424Z,32.25
2022-08-30T08:07:27.133Z,35.47
2022-08-30T08:19:09.481Z,34.50
2022-08-30T08:34:42.744Z,35.78
2022-08-30T08:43:58.547Z,36.96
2022-08-30T08:47:35.499Z,32.32
2022-08-30T08:50:20.702Z,39.23
2022-08-30T08:53:47.349Z,43.28
2022-08-30T08:56:44.410Z,40.41
2022-08-30T08:59:47.855Z,41.04
2022-08-30T09:03:37.911Z,41.58
2022-08-30T09:07:15.042Z,36.38
2022-08-30T11:35:50.002Z,45.43
2022-08-30T11:38:40.000Z,50.48
2022-08-30T11:41:14.645Z,48.59
2022-08-30T11:43:43.104Z,51.37
2022-08-30T11:46:34.733Z,47.30
2022-08-30T11:49:15.614Z,44.74
2022-08-30T11:52:26.549Z,44.47
2022-08-30T11:55:19.237Z,41.46
2022-08-30T11:58:11.677Z,46.93
2022-08-30T12:00:53.570Z,45.00
2022-08-30T12:04:26.447Z,42.32
2022-08-30T12:07:06.821Z,45.00
2022-08-30T12:09:39.135Z,45.23
2022-08-30T12:12:35.201Z,49.72
2022-08-30T12:15:05.343Z,46.28
2022-08-30T12:18:16.077Z,43.71
2022-08-30T12:20:50.329Z,46.06
2022-08-30T12:23:46.813Z,43.93
2022-08-30T12:26:31.411Z,42.61
2022-08-30T12:29:21.177Z,43.31
2022-08-30T12:31:58.266Z,45.74
2022-08-30T12:34:41.278Z,43.42
2022-08-30T12:37:26.828Z,44.21
2022-08-30T12:40:15.786Z,44.56
2022-08-30T12:43:00.877Z,45.28
2022-08-30T12:45:44.295Z,45.25
2022-08-30T12:48:17.431Z,42.56
2022-08-30T12:50:53.719Z,46.17
2022-08-30T12:53:42.843Z,51.29
2022-08-30T12:56:35.022Z,47.28
2022-08-30T12:59:13.076Z,47.31
2022-08-30T13:02:20.276Z,49.79
2022-08-30T13:05:45.456Z,48.41
2022-08-30T13:08:57.394Z,48.33
2022-08-30T13:11:29.494Z,50.18
2022-08-30T13:14:37.316Z,50.48
2022-08-30T13:17:27.528Z,51.75
2022-08-30T13:20:12.059Z,45.06
2022-08-30T13:23:00.536Z,48.09
2022-08-30T13:25:29.019Z,45.02
2022-08-30T13:27:57.515Z,45.67
2022-08-30T13:30:29.962Z,45.40
2022-08-30T13:36:35.890Z,45.35
2022-08-30T13:39:34.399Z,46.55
2022-08-30T13:49:06.054Z,47.49
2022-08-30T13:51:33.765Z,48.63
2022-08-30T13:54:32.734Z,47.84
2022-08-30T13:57:06.753Z,49.06
2022-08-30T13:59:34.711Z,48.64
2022-08-30T14:02:08.320Z,47.72
2022-08-30T14:05:50.621Z,49.03
2022-08-30T14:08:52.377Z,49.44
2022-08-30T14:12:02.259Z,49.38
2022-08-30T14:14:43.295Z,48.03
2022-08-30T14:17:12.531Z,48.88
2022-08-30T14:19:42.857Z,50.69
2022-08-30T14:33:58.766Z,50.64
2022-08-30T14:41:32.209Z,49.94
2022-08-30T14:44:11.090Z,53.11
2022-08-30T14:50:38.032Z,53.59
2022-08-30T14:53:08.474Z,53.49
2022-08-30T14:59:10.161Z,51.20
2022-08-30T15:08:20.268Z,49.40
2022-08-30T15:11:12.366Z,48.05
2022-08-30T15:13:52.966Z,49.13
2022-08-30T15:16:38.592Z,52.07
2022-08-30T15:19:19.151Z,51.18
2022-08-30T17:44:56.034Z,81.93
2022-08-30T19:27:37.193Z,83.51
2022-08-30T19:44:22.472Z,79.85
2022-08-30T20:04:05.379Z,81.08
2022-08-30T21:19:35.804Z,71.51
